This is the latest recevied weather packets stored in our database for station/object K5RNB. If no packets are shown the sender has not sent any weather packets the latest 10 day(s).
| Time | Temp. | Humidity | Pressure | Rain* | Wind** | Luminosity | Snow |
|---|---|---|---|---|---|---|---|
| 1777339489 | 27.78° C | 67% | 1005.7 hPa | 0 mm | - | - | - |
| 1777337689 | 28.89° C | 60% | 1005.3 hPa | 0 mm | - | - | - |
| 1777337089 | 29.44° C | 62% | 1005.3 hPa | 0 mm | - | - | - |
| 1777334690 | 33.33° C | 47% | 1005.6 hPa | 0 mm | - | - | - |
| 1777334389 | 33.89° C | 54% | 1005.6 hPa | 0 mm | - | - | - |
| 1777332289 | 33.89° C | 47% | 1005.9 hPa | 0 mm | - | - | - |
| 1777329890 | 33.89° C | 42% | 1005.8 hPa | 0 mm | - | - | - |
| 1777329590 | 33.89° C | 42% | 1005.7 hPa | 0 mm | - | - | - |
| 1777327190 | 33.33° C | 41% | 1005.6 hPa | 0 mm | - | - | - |
| 1777326590 | 33.33° C | 40% | 1005.6 hPa | 0 mm | - | - | - |
| 1777325691 | 33.33° C | 40% | 1005.7 hPa | 0 mm | - | - | - |
| 1777325090 | 33.33° C | 39% | 1005.7 hPa | 0 mm | - | - | - |
| 1777322690 | 33.33° C | 41% | 1005.9 hPa | 0 mm | - | - | - |
| 1777321791 | 32.78° C | 45% | 1005.9 hPa | 0 mm | - | - | - |
| 1777321491 | 32.78° C | 45% | 1006 hPa | 0 mm | - | - | - |
| 1777320591 | 32.78° C | 49% | 1006 hPa | 0 mm | - | - | - |
| 1777319992 | 32.22° C | 44% | 1006 hPa | 0 mm | - | - | - |
| 1777319090 | 32.78° C | 48% | 1006.1 hPa | 0 mm | - | - | - |
| 1777315192 | 31.11° C | 53% | 1006.2 hPa | 0 mm | - | - | - |
| 1777313092 | 30.56° C | 61% | 1006.2 hPa | 0 mm | - | - | - |
| 1777311592 | 30.56° C | 63% | 1006.2 hPa | 0 mm | - | - | - |
| 1777309492 | 29.44° C | 72% | 1006.4 hPa | 0 mm | - | - | - |
| 1777309191 | 29.44° C | 72% | 1006.4 hPa | 0 mm | - | - | - |
| 1777305292 | 27.78° C | 77% | 1006.1 hPa | 0 mm | - | - | - |
| 1777304992 | 27.78° C | 78% | 1006.2 hPa | 0 mm | - | - | - |
* Rain latest hour (hover to see other rain measurements)
** Current wind speed in m/s (hover to see current wind gust speed)